Rhea — YP3227 — position and weather

sailwx.info

Track history (hours):
 
Tides and Currents Weather Stations Pressure Air Temp Water Temp Dewpoint Dewpoint Depression Visibility Wind Speed Wind Dir Waves Ship Positions

Rhea

Last reported at 2018-Feb-19 12:12 UTC. Time now 2018-Feb-20 15:57 UTC.
Position N 45°56' E 018°47'.

Length 80 m; draft 2.5 m.

Type: Ship. MMSI: 264163227.

Date/timePositionNaut miles runAvg speedWind from/ knotsBaromVisibWave heightAir tempDewpointWater temp
2018-Feb-19 12:12N 45°56' E 018°47'1 3.5
2018-Feb-19 11:51N 45°55' E 018°48'1 3.6
2018-Feb-19 11:30N 45°54' E 018°50'2 3.4
2018-Feb-19 11:00N 45°52' E 018°50'2 3.1
2018-Feb-19 10:30N 45°51' E 018°51'1 1.4
2018-Feb-19 10:00N 45°51' E 018°52'0 0.0
2018-Feb-19 09:30N 45°51' E 018°52'0 0.0
2018-Feb-19 07:50N 45°51' E 018°52'0 0.1
2018-Feb-19 07:29N 45°51' E 018°51'1 2.7
2018-Feb-19 07:01N 45°49' E 018°51'2 3.2
2018-Feb-19 06:30N 45°48' E 018°51'2 3.1
2018-Feb-19 06:01N 45°47' E 018°53'2 3.0
2018-Feb-19 05:31N 45°45' E 018°53'1 2.8
2018-Feb-19 05:01N 45°44' E 018°54'0 0.1
2018-Feb-19 04:30N 45°44' E 018°54'0 0.0
2018-Feb-19 04:00N 45°44' E 018°54'0 0.0
2018-Feb-19 03:31N 45°44' E 018°54'0 0.0
2018-Feb-19 03:01N 45°44' E 018°54'0 0.0
2018-Feb-19 02:31N 45°44' E 018°54'0 0.0
2018-Feb-19 02:01N 45°44' E 018°54'0 0.0
2018-Feb-19 01:31N 45°44' E 018°54'0 0.0
2018-Feb-19 01:01N 45°44' E 018°54'0 0.0
2018-Feb-19 00:30N 45°44' E 018°54'0 0.0
2018-Feb-19 00:00N 45°44' E 018°54'0 0.0
2018-Feb-18 23:31N 45°44' E 018°54'0 0.0
2018-Feb-18 22:57N 45°44' E 018°54'0 0.0
2018-Feb-18 22:30N 45°44' E 018°54'0 0.0
2018-Feb-18 22:00N 45°44' E 018°54'0 0.0
2018-Feb-18 21:30N 45°44' E 018°54'0 0.0
2018-Feb-18 21:01N 45°44' E 018°54'0 0.0
2018-Feb-18 20:31N 45°44' E 018°54'0 0.0
2018-Feb-18 20:01N 45°44' E 018°54'0 0.0
2018-Feb-18 19:31N 45°44' E 018°54'0 0.0
2018-Feb-18 19:00N 45°44' E 018°54'0 0.0
2018-Feb-18 18:31N 45°44' E 018°54'0 0.0
2018-Feb-18 17:59N 45°44' E 018°54'0 0.0
2018-Feb-18 17:31N 45°44' E 018°54'0 0.2
2018-Feb-18 17:00N 45°44' E 018°54'1 2.9
2018-Feb-18 16:30N 45°43' E 018°54'2 3.1
2018-Feb-18 16:00N 45°41' E 018°56'2 3.0
2018-Feb-18 15:26N 45°40' E 018°58'1 3.1
2018-Feb-18 15:01N 45°39' E 018°57'2 3.2
2018-Feb-18 14:31N 45°38' E 018°56'1 3.0
2018-Feb-18 14:01N 45°37' E 018°54'1 3.0
2018-Feb-18 13:30N 45°35' E 018°54'2 3.2
2018-Feb-18 13:01N 45°34' E 018°53'2 3.3
2018-Feb-18 12:30N 45°33' E 018°55'2 3.1
2018-Feb-18 12:01N 45°32' E 018°57'1 2.9
2018-Feb-18 11:31N 45°32' E 018°59'2 3.0
2018-Feb-18 11:01N 45°33' E 019°01'1 2.3
2018-Feb-18 10:30N 45°33' E 019°02'1 2.7
2018-Feb-18 10:01N 45°32' E 019°04'1 3.0
2018-Feb-18 09:31N 45°31' E 019°06'1 2.8
2018-Feb-18 09:00N 45°30' E 019°06'2 3.1
2018-Feb-18 08:31N 45°29' E 019°04'2 3.2
2018-Feb-18 08:01N 45°29' E 019°02'1 2.8
2018-Feb-18 07:30N 45°29' E 018°60'2 3.1
2018-Feb-18 07:00N 45°28' E 018°59'2 3.2
2018-Feb-18 06:31N 45°26' E 018°60'2 3.2
2018-Feb-18 06:01N 45°26' E 019°02'1 2.7
2018-Feb-18 05:31N 45°24' E 019°01'1 2.6
2018-Feb-18 05:01N 45°24' E 018°60'0 0.2
2018-Feb-18 04:30N 45°24' E 018°59'0 0.0
2018-Feb-18 04:00N 45°24' E 018°59'0 0.0
2018-Feb-18 03:31N 45°24' E 018°59'0 0.0
2018-Feb-18 03:01N 45°24' E 018°59'0 0.0
2018-Feb-18 02:30N 45°24' E 018°59'0 0.0
2018-Feb-18 02:01N 45°24' E 018°59'0 0.0
2018-Feb-18 01:21N 45°24' E 018°59'0 0.0
2018-Feb-18 01:00N 45°24' E 018°59'0 0.0
2018-Feb-18 00:30N 45°24' E 018°59'0 0.0
2018-Feb-18 00:00N 45°24' E 018°59'0 0.0
2018-Feb-17 23:31N 45°24' E 018°59'0 0.0
2018-Feb-17 22:48N 45°24' E 018°59'0 0.0
2018-Feb-17 22:30N 45°24' E 018°59'0 0.0
2018-Feb-17 22:00N 45°24' E 018°59'0 0.0
2018-Feb-17 21:21N 45°24' E 018°59'0 0.0
2018-Feb-17 21:00N 45°24' E 018°59'0 0.0
2018-Feb-17 20:30N 45°24' E 018°59'0 0.0
2018-Feb-17 20:00N 45°24' E 018°59'0 0.0
2018-Feb-17 19:30N 45°24' E 018°59'0 0.0
2018-Feb-17 19:00N 45°24' E 018°59'0 0.0
2018-Feb-17 18:30N 45°24' E 018°59'0 0.0
2018-Feb-17 17:56N 45°24' E 018°59'0 0.5
2018-Feb-17 17:26N 45°24' E 018°59'1 2.5
2018-Feb-17 17:01N 45°23' E 018°58'1 2.8
2018-Feb-17 16:30N 45°22' E 018°59'1 2.7
2018-Feb-17 16:00N 45°21' E 019°01'1 2.7
2018-Feb-17 15:27N 45°21' E 019°03'1 3.1
2018-Feb-17 15:00N 45°21' E 019°05'1 2.8
2018-Feb-17 14:30N 45°19' E 019°06'2 3.1
2018-Feb-17 14:00N 45°18' E 019°06'1 2.8
2018-Feb-17 13:28N 45°17' E 019°08'1 2.9
2018-Feb-17 13:01N 45°17' E 019°10'1 2.9
2018-Feb-17 12:30N 45°16' E 019°12'3 2.8
2018-Feb-17 11:21N 45°15' E 019°16'2 2.7
2018-Feb-17 10:40N 45°14' E 019°18'1 2.9
2018-Feb-17 10:30N 45°14' E 019°19'2 3.1
2018-Feb-17 10:01N 45°14' E 019°21'1 2.9
2018-Feb-17 09:31N 45°14' E 019°23'1 2.9
2018-Feb-17 09:01N 45°14' E 019°25'2 3.0
2018-Feb-17 08:31N 45°14' E 019°27'5 2.3
2018-Feb-17 06:27N 45°13' E 019°34'3 2.5
2018-Feb-17 05:22N 45°13' E 019°38'1 2.6
2018-Feb-17 04:58N 45°13' E 019°39'1 2.3
2018-Feb-17 04:30N 45°14' E 019°41'0 0.4
2018-Feb-17 04:00N 45°14' E 019°41'0 0.0
2018-Feb-17 03:31N 45°14' E 019°41'0 0.0
2018-Feb-17 03:00N 45°14' E 019°41'0 0.0
2018-Feb-17 02:31N 45°14' E 019°41'0 0.0
2018-Feb-17 02:00N 45°14' E 019°41'0 0.0
2018-Feb-17 01:30N 45°14' E 019°41'0 0.0
2018-Feb-17 01:00N 45°14' E 019°41'0 0.0
2018-Feb-17 00:31N 45°14' E 019°41'0 0.0
2018-Feb-17 00:01N 45°14' E 019°41'0 0.0
2018-Feb-16 23:31N 45°14' E 019°41'0 0.0
2018-Feb-16 22:53N 45°14' E 019°41'0 0.0
2018-Feb-16 22:30N 45°14' E 019°41'0 0.0
2018-Feb-16 22:00N 45°14' E 019°41'0 0.0
2018-Feb-16 21:26N 45°14' E 019°41'0 0.0
2018-Feb-16 21:00N 45°14' E 019°41'0 0.0
2018-Feb-16 20:30N 45°14' E 019°41'0 0.0
2018-Feb-16 20:00N 45°14' E 019°41'0 0.0
2018-Feb-16 19:31N 45°14' E 019°41'0 0.0
2018-Feb-16 19:00N 45°14' E 019°41'0 0.0
2018-Feb-16 18:30N 45°14' E 019°41'0 0.0
2018-Feb-16 18:00N 45°14' E 019°41'0 0.0
2018-Feb-16 17:31N 45°14' E 019°41'0 0.0
2018-Feb-16 17:00N 45°14' E 019°41'0 0.0
2018-Feb-16 16:31N 45°14' E 019°41'1 1.3
2018-Feb-16 16:00N 45°14' E 019°42'1 2.9
2018-Feb-16 15:30N 45°14' E 019°44'1 2.8
2018-Feb-16 15:01N 45°14' E 019°46'2 3.1
2018-Feb-16 14:30N 45°13' E 019°48'1 2.8
2018-Feb-16 14:01N 45°13' E 019°50'1 2.8
2018-Feb-16 13:31N 45°14' E 019°51'1 2.7
2018-Feb-16 13:00N 45°16' E 019°52'1 2.5
2018-Feb-16 12:31N 45°16' E 019°53'1 2.9
2018-Feb-16 12:00N 45°15' E 019°55'1 3.0
2018-Feb-16 11:31N 45°13' E 019°56'2 3.0
2018-Feb-16 11:00N 45°12' E 019°57'1 3.0
2018-Feb-16 10:31N 45°11' E 019°58'2 3.0
2018-Feb-16 10:00N 45°11' E 020°01'2 3.0
2018-Feb-16 09:30N 45°10' E 020°03'2 3.0
2018-Feb-16 09:00N 45°10' E 020°05'2 3.2
2018-Feb-16 08:30N 45°10' E 020°07'1 2.7
2018-Feb-16 08:01N 45°11' E 020°09'1 2.8
2018-Feb-16 07:31N 45°11' E 020°11'1 2.8
2018-Feb-16 07:00N 45°10' E 020°13'1 3.0
2018-Feb-16 06:30N 45°10' E 020°14'2 3.0
2018-Feb-16 05:49N 45°08' E 020°16'1 2.7
2018-Feb-16 05:29N 45°07' E 020°17'1 2.8
2018-Feb-16 05:00N 45°06' E 020°18'2 2.5
2018-Feb-16 04:07N 45°05' E 020°20'0 1.6
2018-Feb-16 03:59N 45°04' E 020°20'0 0.1
2018-Feb-16 03:30N 45°04' E 020°20'0 0.0
2018-Feb-16 02:59N 45°04' E 020°20'0 0.0
2018-Feb-16 02:30N 45°04' E 020°20'0 0.0
2018-Feb-16 02:00N 45°04' E 020°20'0 0.0
2018-Feb-16 01:30N 45°04' E 020°20'0 0.0
2018-Feb-16 01:00N 45°04' E 020°20'0 0.0
2018-Feb-16 00:30N 45°04' E 020°20'0 0.0
2018-Feb-16 00:00N 45°04' E 020°20'0 0.0
2018-Feb-15 23:29N 45°04' E 020°20'0 0.0
2018-Feb-15 23:00N 45°04' E 020°20'0 0.0
2018-Feb-15 22:29N 45°04' E 020°20'0 0.0
2018-Feb-15 22:00N 45°04' E 020°20'0 0.0
2018-Feb-15 21:30N 45°04' E 020°20'0 0.0
2018-Feb-15 21:00N 45°04' E 020°20'0 0.0
2018-Feb-15 20:29N 45°04' E 020°20'0 0.0
2018-Feb-15 20:00N 45°04' E 020°20'0 0.0
2018-Feb-15 19:30N 45°04' E 020°20'0 0.0
2018-Feb-15 19:00N 45°04' E 020°20'0 0.0
2018-Feb-15 18:30N 45°04' E 020°20'1 1.5
2018-Feb-15 18:00N 45°04' E 020°21'1 2.9
2018-Feb-15 17:30N 45°02' E 020°22'1 2.9
2018-Feb-15 17:00N 45°01' E 020°22'1 2.3
2018-Feb-15 16:30N 45°00' E 020°21'1 2.5
2018-Feb-15 16:00N 44°60' E 020°19'1 2.7
2018-Feb-15 15:29N 44°59' E 020°17'1 2.8
2018-Feb-15 15:00N 44°58' E 020°17'1 2.6
2018-Feb-15 14:30N 44°56' E 020°18'1 2.8
2018-Feb-15 14:01N 44°55' E 020°20'1 2.9
2018-Feb-15 13:31N 44°54' E 020°21'2 3.1
2018-Feb-15 13:00N 44°53' E 020°22'1 2.9
2018-Feb-15 12:31N 44°52' E 020°23'1 2.9
2018-Feb-15 12:00N 44°51' E 020°25'2 3.2
2018-Feb-15 11:30N 44°50' E 020°27'1 2.8
2018-Feb-15 11:00N 44°50' E 020°29'0 0.3
2018-Feb-15 10:30N 44°50' E 020°29'0 0.9
2018-Feb-15 10:01N 44°50' E 020°28'0 0.0
2018-Feb-15 09:31N 44°50' E 020°28'0 0.5
2018-Feb-15 09:00N 44°50' E 020°29'0 0.0
2018-Feb-15 08:31N 44°50' E 020°29'0 0.0
2018-Feb-15 08:00N 44°50' E 020°29'0 0.5
2018-Feb-15 07:30N 44°50' E 020°29'0 0.0
2018-Feb-15 07:01N 44°50' E 020°29'0 0.7
2018-Feb-15 06:31N 44°50' E 020°29'1 2.6
2018-Feb-15 06:01N 44°50' E 020°31'1 2.7
2018-Feb-15 05:31N 44°50' E 020°33'1 2.6
2018-Feb-15 05:00N 44°51' E 020°35'1 2.6
2018-Feb-15 04:31N 44°51' E 020°36'1 1.7
2018-Feb-15 04:01N 44°51' E 020°38'0 0.0
2018-Feb-15 03:31N 44°51' E 020°38'0 0.0
2018-Feb-15 03:01N 44°51' E 020°38'0 0.0
2018-Feb-15 02:30N 44°51' E 020°38'0 0.0
2018-Feb-15 01:58N 44°51' E 020°38'0 0.0
2018-Feb-15 01:31N 44°51' E 020°38'0 0.0
2018-Feb-15 01:00N 44°51' E 020°38'0 0.0
2018-Feb-15 00:31N 44°51' E 020°38'0 0.0
2018-Feb-15 00:00N 44°51' E 020°38'0 0.0
2018-Feb-14 23:31N 44°51' E 020°38'0 0.0
2018-Feb-14 23:00N 44°51' E 020°38'0 0.0
2018-Feb-14 22:30N 44°51' E 020°38'0 0.0
2018-Feb-14 22:00N 44°51' E 020°38'0 0.0
2018-Feb-14 21:30N 44°51' E 020°38'0 0.0
2018-Feb-14 21:00N 44°51' E 020°38'0 0.0
2018-Feb-14 20:30N 44°51' E 020°38'0 0.0
2018-Feb-14 20:00N 44°51' E 020°38'0 0.0
2018-Feb-14 19:30N 44°51' E 020°38'0 0.0
2018-Feb-14 19:00N 44°51' E 020°38'0 0.1
2018-Feb-14 18:31N 44°51' E 020°38'0 0.3
2018-Feb-14 18:00N 44°51' E 020°38'1 2.5
2018-Feb-14 17:31N 44°50' E 020°39'1 2.7
2018-Feb-14 17:00N 44°49' E 020°38'1 2.6
2018-Feb-14 16:31N 44°47' E 020°38'1 2.8
2018-Feb-14 16:01N 44°46' E 020°38'1 3.0
2018-Feb-14 15:30N 44°45' E 020°39'1 2.8
2018-Feb-14 15:01N 44°44' E 020°41'2 3.1
2018-Feb-14 14:30N 44°43' E 020°42'1 2.8
2018-Feb-14 14:00N 44°41' E 020°43'2 3.1
2018-Feb-14 13:31N 44°40' E 020°45'2 3.1
2018-Feb-14 13:00N 44°40' E 020°47'8 2.8
2018-Feb-14 10:09N 44°42' E 020°57'1 1.9
2018-Feb-14 09:41N 44°42' E 020°58'0 0.2
2018-Feb-14 09:30N 44°42' E 020°58'0 0.2
2018-Feb-14 08:57N 44°42' E 020°58'1 2.2
2018-Feb-14 08:21N 44°43' E 020°60'1 2.9
2018-Feb-14 07:58N 44°43' E 021°01'10 0.8
2018-Feb-13 18:51N 44°47' E 021°14'7 2.1
2018-Feb-13 15:33N 44°47' E 021°24'0 3.1
2018-Feb-13 15:30N 44°47' E 021°24'2 3.2
2018-Feb-13 15:01N 44°46' E 021°27'1 2.8
2018-Feb-13 14:30N 44°47' E 021°29'1 2.9
2018-Feb-13 14:00N 44°46' E 021°30'0 0.3
2018-Feb-13 13:30N 44°46' E 021°31'0 0.1
2018-Feb-13 11:08N 44°46' E 021°31'0 0.0
2018-Feb-13 09:41N 44°46' E 021°31'0 2.1
2018-Feb-13 09:30N 44°46' E 021°31'3 2.2
2018-Feb-13 08:16N 44°46' E 021°34'1 2.4
2018-Feb-13 08:01N 44°46' E 021°35'1 2.8
2018-Feb-13 07:31N 44°44' E 021°36'2 3.1
2018-Feb-13 07:01N 44°43' E 021°37'2 3.0
2018-Feb-13 06:30N 44°42' E 021°39'16 1.0
2018-Feb-12 14:48N 44°37' E 021°60'1 2.6
2018-Feb-12 14:27N 44°37' E 022°00'1 2.7
2018-Feb-12 14:00N 44°36' E 022°01'1 2.7
2018-Feb-12 13:30N 44°34' E 022°02'1 2.9
2018-Feb-12 13:01N 44°33' E 022°02'2 3.3
2018-Feb-12 12:30N 44°32' E 022°04'1 2.9
2018-Feb-12 12:01N 44°30' E 022°05'2 3.1
2018-Feb-12 11:30N 44°29' E 022°06'2 3.2
2018-Feb-12 11:01N 44°28' E 022°08'2 3.2
2018-Feb-12 10:30N 44°29' E 022°10'2 3.1
2018-Feb-12 10:00N 44°30' E 022°12'  
Track history (hours):
 
Tides and Currents Weather Stations Pressure Air Temp Water Temp Dewpoint Dewpoint Depression Visibility Wind Speed Wind Dir Waves Ship Positions

Rhea

Last reported at 2018-Feb-19 12:12 UTC. Time now 2018-Feb-20 15:57 UTC.
Position N 45°56' E 018°47'.

Length 80 m; draft 2.5 m.

Type: Ship. MMSI: 264163227.

Date/timePositionNaut miles runAvg speedWind from/ knotsBaromVisibWave heightAir tempDewpointWater temp
2018-Feb-19 12:12N 45°56' E 018°47'1 3.5
2018-Feb-19 11:51N 45°55' E 018°48'1 3.6
2018-Feb-19 11:30N 45°54' E 018°50'2 3.4
2018-Feb-19 11:00N 45°52' E 018°50'2 3.1
2018-Feb-19 10:30N 45°51' E 018°51'1 1.4
2018-Feb-19 10:00N 45°51' E 018°52'0 0.0
2018-Feb-19 09:30N 45°51' E 018°52'0 0.0
2018-Feb-19 07:50N 45°51' E 018°52'0 0.1
2018-Feb-19 07:29N 45°51' E 018°51'1 2.7
2018-Feb-19 07:01N 45°49' E 018°51'2 3.2
2018-Feb-19 06:30N 45°48' E 018°51'2 3.1
2018-Feb-19 06:01N 45°47' E 018°53'2 3.0
2018-Feb-19 05:31N 45°45' E 018°53'1 2.8
2018-Feb-19 05:01N 45°44' E 018°54'0 0.1
2018-Feb-19 04:30N 45°44' E 018°54'0 0.0
2018-Feb-19 04:00N 45°44' E 018°54'0 0.0
2018-Feb-19 03:31N 45°44' E 018°54'0 0.0
2018-Feb-19 03:01N 45°44' E 018°54'0 0.0
2018-Feb-19 02:31N 45°44' E 018°54'0 0.0
2018-Feb-19 02:01N 45°44' E 018°54'0 0.0
2018-Feb-19 01:31N 45°44' E 018°54'0 0.0
2018-Feb-19 01:01N 45°44' E 018°54'0 0.0
2018-Feb-19 00:30N 45°44' E 018°54'0 0.0
2018-Feb-19 00:00N 45°44' E 018°54'0 0.0
2018-Feb-18 23:31N 45°44' E 018°54'0 0.0
2018-Feb-18 22:57N 45°44' E 018°54'0 0.0
2018-Feb-18 22:30N 45°44' E 018°54'0 0.0
2018-Feb-18 22:00N 45°44' E 018°54'0 0.0
2018-Feb-18 21:30N 45°44' E 018°54'0 0.0
2018-Feb-18 21:01N 45°44' E 018°54'0 0.0
2018-Feb-18 20:31N 45°44' E 018°54'0 0.0
2018-Feb-18 20:01N 45°44' E 018°54'0 0.0
2018-Feb-18 19:31N 45°44' E 018°54'0 0.0
2018-Feb-18 19:00N 45°44' E 018°54'0 0.0
2018-Feb-18 18:31N 45°44' E 018°54'0 0.0
2018-Feb-18 17:59N 45°44' E 018°54'0 0.0
2018-Feb-18 17:31N 45°44' E 018°54'0 0.2
2018-Feb-18 17:00N 45°44' E 018°54'1 2.9
2018-Feb-18 16:30N 45°43' E 018°54'2 3.1
2018-Feb-18 16:00N 45°41' E 018°56'2 3.0
2018-Feb-18 15:26N 45°40' E 018°58'1 3.1
2018-Feb-18 15:01N 45°39' E 018°57'2 3.2
2018-Feb-18 14:31N 45°38' E 018°56'1 3.0
2018-Feb-18 14:01N 45°37' E 018°54'1 3.0
2018-Feb-18 13:30N 45°35' E 018°54'2 3.2
2018-Feb-18 13:01N 45°34' E 018°53'2 3.3
2018-Feb-18 12:30N 45°33' E 018°55'2 3.1
2018-Feb-18 12:01N 45°32' E 018°57'1 2.9
2018-Feb-18 11:31N 45°32' E 018°59'2 3.0
2018-Feb-18 11:01N 45°33' E 019°01'1 2.3
2018-Feb-18 10:30N 45°33' E 019°02'1 2.7
2018-Feb-18 10:01N 45°32' E 019°04'1 3.0
2018-Feb-18 09:31N 45°31' E 019°06'1 2.8
2018-Feb-18 09:00N 45°30' E 019°06'2 3.1
2018-Feb-18 08:31N 45°29' E 019°04'2 3.2
2018-Feb-18 08:01N 45°29' E 019°02'1 2.8
2018-Feb-18 07:30N 45°29' E 018°60'2 3.1
2018-Feb-18 07:00N 45°28' E 018°59'2 3.2
2018-Feb-18 06:31N 45°26' E 018°60'2 3.2
2018-Feb-18 06:01N 45°26' E 019°02'1 2.7
2018-Feb-18 05:31N 45°24' E 019°01'1 2.6
2018-Feb-18 05:01N 45°24' E 018°60'0 0.2
2018-Feb-18 04:30N 45°24' E 018°59'0 0.0
2018-Feb-18 04:00N 45°24' E 018°59'0 0.0
2018-Feb-18 03:31N 45°24' E 018°59'0 0.0
2018-Feb-18 03:01N 45°24' E 018°59'0 0.0
2018-Feb-18 02:30N 45°24' E 018°59'0 0.0
2018-Feb-18 02:01N 45°24' E 018°59'0 0.0
2018-Feb-18 01:21N 45°24' E 018°59'0 0.0
2018-Feb-18 01:00N 45°24' E 018°59'0 0.0
2018-Feb-18 00:30N 45°24' E 018°59'0 0.0
2018-Feb-18 00:00N 45°24' E 018°59'0 0.0
2018-Feb-17 23:31N 45°24' E 018°59'0 0.0
2018-Feb-17 22:48N 45°24' E 018°59'0 0.0
2018-Feb-17 22:30N 45°24' E 018°59'0 0.0
2018-Feb-17 22:00N 45°24' E 018°59'0 0.0
2018-Feb-17 21:21N 45°24' E 018°59'0 0.0
2018-Feb-17 21:00N 45°24' E 018°59'0 0.0
2018-Feb-17 20:30N 45°24' E 018°59'0 0.0
2018-Feb-17 20:00N 45°24' E 018°59'0 0.0
2018-Feb-17 19:30N 45°24' E 018°59'0 0.0
2018-Feb-17 19:00N 45°24' E 018°59'0 0.0
2018-Feb-17 18:30N 45°24' E 018°59'0 0.0
2018-Feb-17 17:56N 45°24' E 018°59'0 0.5
2018-Feb-17 17:26N 45°24' E 018°59'1 2.5
2018-Feb-17 17:01N 45°23' E 018°58'1 2.8
2018-Feb-17 16:30N 45°22' E 018°59'1 2.7
2018-Feb-17 16:00N 45°21' E 019°01'1 2.7
2018-Feb-17 15:27N 45°21' E 019°03'1 3.1
2018-Feb-17 15:00N 45°21' E 019°05'1 2.8
2018-Feb-17 14:30N 45°19' E 019°06'2 3.1
2018-Feb-17 14:00N 45°18' E 019°06'1 2.8
2018-Feb-17 13:28N 45°17' E 019°08'1 2.9
2018-Feb-17 13:01N 45°17' E 019°10'1 2.9
2018-Feb-17 12:30N 45°16' E 019°12'3 2.8
2018-Feb-17 11:21N 45°15' E 019°16'2 2.7
2018-Feb-17 10:40N 45°14' E 019°18'1 2.9
2018-Feb-17 10:30N 45°14' E 019°19'2 3.1
2018-Feb-17 10:01N 45°14' E 019°21'1 2.9
2018-Feb-17 09:31N 45°14' E 019°23'1 2.9
2018-Feb-17 09:01N 45°14' E 019°25'2 3.0
2018-Feb-17 08:31N 45°14' E 019°27'5 2.3
2018-Feb-17 06:27N 45°13' E 019°34'3 2.5
2018-Feb-17 05:22N 45°13' E 019°38'1 2.6
2018-Feb-17 04:58N 45°13' E 019°39'1 2.3
2018-Feb-17 04:30N 45°14' E 019°41'0 0.4
2018-Feb-17 04:00N 45°14' E 019°41'0 0.0
2018-Feb-17 03:31N 45°14' E 019°41'0 0.0
2018-Feb-17 03:00N 45°14' E 019°41'0 0.0
2018-Feb-17 02:31N 45°14' E 019°41'0 0.0
2018-Feb-17 02:00N 45°14' E 019°41'0 0.0
2018-Feb-17 01:30N 45°14' E 019°41'0 0.0
2018-Feb-17 01:00N 45°14' E 019°41'0 0.0
2018-Feb-17 00:31N 45°14' E 019°41'0 0.0
2018-Feb-17 00:01N 45°14' E 019°41'0 0.0
2018-Feb-16 23:31N 45°14' E 019°41'0 0.0
2018-Feb-16 22:53N 45°14' E 019°41'0 0.0
2018-Feb-16 22:30N 45°14' E 019°41'0 0.0
2018-Feb-16 22:00N 45°14' E 019°41'0 0.0
2018-Feb-16 21:26N 45°14' E 019°41'0 0.0
2018-Feb-16 21:00N 45°14' E 019°41'0 0.0
2018-Feb-16 20:30N 45°14' E 019°41'0 0.0
2018-Feb-16 20:00N 45°14' E 019°41'0 0.0
2018-Feb-16 19:31N 45°14' E 019°41'0 0.0
2018-Feb-16 19:00N 45°14' E 019°41'0 0.0
2018-Feb-16 18:30N 45°14' E 019°41'0 0.0
2018-Feb-16 18:00N 45°14' E 019°41'0 0.0
2018-Feb-16 17:31N 45°14' E 019°41'0 0.0
2018-Feb-16 17:00N 45°14' E 019°41'0 0.0
2018-Feb-16 16:31N 45°14' E 019°41'1 1.3
2018-Feb-16 16:00N 45°14' E 019°42'1 2.9
2018-Feb-16 15:30N 45°14' E 019°44'1 2.8
2018-Feb-16 15:01N 45°14' E 019°46'2 3.1
2018-Feb-16 14:30N 45°13' E 019°48'1 2.8
2018-Feb-16 14:01N 45°13' E 019°50'1 2.8
2018-Feb-16 13:31N 45°14' E 019°51'1 2.7
2018-Feb-16 13:00N 45°16' E 019°52'1 2.5
2018-Feb-16 12:31N 45°16' E 019°53'1 2.9
2018-Feb-16 12:00N 45°15' E 019°55'1 3.0
2018-Feb-16 11:31N 45°13' E 019°56'2 3.0
2018-Feb-16 11:00N 45°12' E 019°57'1 3.0
2018-Feb-16 10:31N 45°11' E 019°58'2 3.0
2018-Feb-16 10:00N 45°11' E 020°01'2 3.0
2018-Feb-16 09:30N 45°10' E 020°03'2 3.0
2018-Feb-16 09:00N 45°10' E 020°05'2 3.2
2018-Feb-16 08:30N 45°10' E 020°07'1 2.7
2018-Feb-16 08:01N 45°11' E 020°09'1 2.8
2018-Feb-16 07:31N 45°11' E 020°11'1 2.8
2018-Feb-16 07:00N 45°10' E 020°13'1 3.0
2018-Feb-16 06:30N 45°10' E 020°14'2 3.0
2018-Feb-16 05:49N 45°08' E 020°16'1 2.7
2018-Feb-16 05:29N 45°07' E 020°17'1 2.8
2018-Feb-16 05:00N 45°06' E 020°18'2 2.5
2018-Feb-16 04:07N 45°05' E 020°20'0 1.6
2018-Feb-16 03:59N 45°04' E 020°20'0 0.1
2018-Feb-16 03:30N 45°04' E 020°20'0 0.0
2018-Feb-16 02:59N 45°04' E 020°20'0 0.0
2018-Feb-16 02:30N 45°04' E 020°20'0 0.0
2018-Feb-16 02:00N 45°04' E 020°20'0 0.0
2018-Feb-16 01:30N 45°04' E 020°20'0 0.0
2018-Feb-16 01:00N 45°04' E 020°20'0 0.0
2018-Feb-16 00:30N 45°04' E 020°20'0 0.0
2018-Feb-16 00:00N 45°04' E 020°20'0 0.0
2018-Feb-15 23:29N 45°04' E 020°20'0 0.0
2018-Feb-15 23:00N 45°04' E 020°20'0 0.0
2018-Feb-15 22:29N 45°04' E 020°20'0 0.0
2018-Feb-15 22:00N 45°04' E 020°20'0 0.0
2018-Feb-15 21:30N 45°04' E 020°20'0 0.0
2018-Feb-15 21:00N 45°04' E 020°20'0 0.0
2018-Feb-15 20:29N 45°04' E 020°20'0 0.0
2018-Feb-15 20:00N 45°04' E 020°20'0 0.0
2018-Feb-15 19:30N 45°04' E 020°20'0 0.0
2018-Feb-15 19:00N 45°04' E 020°20'0 0.0
2018-Feb-15 18:30N 45°04' E 020°20'1 1.5
2018-Feb-15 18:00N 45°04' E 020°21'1 2.9
2018-Feb-15 17:30N 45°02' E 020°22'1 2.9
2018-Feb-15 17:00N 45°01' E 020°22'1 2.3
2018-Feb-15 16:30N 45°00' E 020°21'1 2.5
2018-Feb-15 16:00N 44°60' E 020°19'1 2.7
2018-Feb-15 15:29N 44°59' E 020°17'1 2.8
2018-Feb-15 15:00N 44°58' E 020°17'1 2.6
2018-Feb-15 14:30N 44°56' E 020°18'1 2.8
2018-Feb-15 14:01N 44°55' E 020°20'1 2.9
2018-Feb-15 13:31N 44°54' E 020°21'2 3.1
2018-Feb-15 13:00N 44°53' E 020°22'1 2.9
2018-Feb-15 12:31N 44°52' E 020°23'1 2.9
2018-Feb-15 12:00N 44°51' E 020°25'2 3.2
2018-Feb-15 11:30N 44°50' E 020°27'1 2.8
2018-Feb-15 11:00N 44°50' E 020°29'0 0.3
2018-Feb-15 10:30N 44°50' E 020°29'0 0.9
2018-Feb-15 10:01N 44°50' E 020°28'0 0.0
2018-Feb-15 09:31N 44°50' E 020°28'0 0.5
2018-Feb-15 09:00N 44°50' E 020°29'0 0.0
2018-Feb-15 08:31N 44°50' E 020°29'0 0.0
2018-Feb-15 08:00N 44°50' E 020°29'0 0.5
2018-Feb-15 07:30N 44°50' E 020°29'0 0.0
2018-Feb-15 07:01N 44°50' E 020°29'0 0.7
2018-Feb-15 06:31N 44°50' E 020°29'1 2.6
2018-Feb-15 06:01N 44°50' E 020°31'1 2.7
2018-Feb-15 05:31N 44°50' E 020°33'1 2.6
2018-Feb-15 05:00N 44°51' E 020°35'1 2.6
2018-Feb-15 04:31N 44°51' E 020°36'1 1.7
2018-Feb-15 04:01N 44°51' E 020°38'0 0.0
2018-Feb-15 03:31N 44°51' E 020°38'0 0.0
2018-Feb-15 03:01N 44°51' E 020°38'0 0.0
2018-Feb-15 02:30N 44°51' E 020°38'0 0.0
2018-Feb-15 01:58N 44°51' E 020°38'0 0.0
2018-Feb-15 01:31N 44°51' E 020°38'0 0.0
2018-Feb-15 01:00N 44°51' E 020°38'0 0.0
2018-Feb-15 00:31N 44°51' E 020°38'0 0.0
2018-Feb-15 00:00N 44°51' E 020°38'0 0.0
2018-Feb-14 23:31N 44°51' E 020°38'0 0.0
2018-Feb-14 23:00N 44°51' E 020°38'0 0.0
2018-Feb-14 22:30N 44°51' E 020°38'0 0.0
2018-Feb-14 22:00N 44°51' E 020°38'0 0.0
2018-Feb-14 21:30N 44°51' E 020°38'0 0.0
2018-Feb-14 21:00N 44°51' E 020°38'0 0.0
2018-Feb-14 20:30N 44°51' E 020°38'0 0.0
2018-Feb-14 20:00N 44°51' E 020°38'0 0.0
2018-Feb-14 19:30N 44°51' E 020°38'0 0.0
2018-Feb-14 19:00N 44°51' E 020°38'0 0.1
2018-Feb-14 18:31N 44°51' E 020°38'0 0.3
2018-Feb-14 18:00N 44°51' E 020°38'1 2.5
2018-Feb-14 17:31N 44°50' E 020°39'1 2.7
2018-Feb-14 17:00N 44°49' E 020°38'1 2.6
2018-Feb-14 16:31N 44°47' E 020°38'1 2.8
2018-Feb-14 16:01N 44°46' E 020°38'1 3.0
2018-Feb-14 15:30N 44°45' E 020°39'1 2.8
2018-Feb-14 15:01N 44°44' E 020°41'2 3.1
2018-Feb-14 14:30N 44°43' E 020°42'1 2.8
2018-Feb-14 14:00N 44°41' E 020°43'2 3.1
2018-Feb-14 13:31N 44°40' E 020°45'2 3.1
2018-Feb-14 13:00N 44°40' E 020°47'8 2.8
2018-Feb-14 10:09N 44°42' E 020°57'1 1.9
2018-Feb-14 09:41N 44°42' E 020°58'0 0.2
2018-Feb-14 09:30N 44°42' E 020°58'0 0.2
2018-Feb-14 08:57N 44°42' E 020°58'1 2.2
2018-Feb-14 08:21N 44°43' E 020°60'1 2.9
2018-Feb-14 07:58N 44°43' E 021°01'10 0.8
2018-Feb-13 18:51N 44°47' E 021°14'7 2.1
2018-Feb-13 15:33N 44°47' E 021°24'0 3.1
2018-Feb-13 15:30N 44°47' E 021°24'2 3.2
2018-Feb-13 15:01N 44°46' E 021°27'1 2.8
2018-Feb-13 14:30N 44°47' E 021°29'1 2.9
2018-Feb-13 14:00N 44°46' E 021°30'0 0.3
2018-Feb-13 13:30N 44°46' E 021°31'0 0.1
2018-Feb-13 11:08N 44°46' E 021°31'0 0.0
2018-Feb-13 09:41N 44°46' E 021°31'0 2.1
2018-Feb-13 09:30N 44°46' E 021°31'3 2.2
2018-Feb-13 08:16N 44°46' E 021°34'1 2.4
2018-Feb-13 08:01N 44°46' E 021°35'1 2.8
2018-Feb-13 07:31N 44°44' E 021°36'2 3.1
2018-Feb-13 07:01N 44°43' E 021°37'2 3.0
2018-Feb-13 06:30N 44°42' E 021°39'16 1.0
2018-Feb-12 14:48N 44°37' E 021°60'1 2.6
2018-Feb-12 14:27N 44°37' E 022°00'1 2.7
2018-Feb-12 14:00N 44°36' E 022°01'1 2.7
2018-Feb-12 13:30N 44°34' E 022°02'1 2.9
2018-Feb-12 13:01N 44°33' E 022°02'2 3.3
2018-Feb-12 12:30N 44°32' E 022°04'1 2.9
2018-Feb-12 12:01N 44°30' E 022°05'2 3.1
2018-Feb-12 11:30N 44°29' E 022°06'2 3.2
2018-Feb-12 11:01N 44°28' E 022°08'2 3.2
2018-Feb-12 10:30N 44°29' E 022°10'2 3.1
2018-Feb-12 10:00N 44°30' E 022°12'  

Dump ship's entire track history